sensor_id;sensor_type;location;lat;lon;timestamp;pressure;altitude;pressure_sealevel;temperature;humidity
27729;BME280;15126;42.186;24.340;2023-04-01T00:01:28;98467.69;;;11.52;62.96
27729;BME280;15126;42.186;24.340;2023-04-01T00:03:57;98464.28;;;11.57;62.15
27729;BME280;15126;42.186;24.340;2023-04-01T00:06:24;98472.31;;;11.55;62.56
27729;BME280;15126;42.186;24.340;2023-04-01T00:08:51;98473.28;;;11.52;63.00
27729;BME280;15126;42.186;24.340;2023-04-01T00:11:18;98478.69;;;11.56;62.58
27729;BME280;15126;42.186;24.340;2023-04-01T00:13:45;98476.69;;;11.56;63.20
27729;BME280;15126;42.186;24.340;2023-04-01T00:16:12;98474.38;;;11.55;63.50
27729;BME280;15126;42.186;24.340;2023-04-01T00:18:39;98469.53;;;11.55;62.61
27729;BME280;15126;42.186;24.340;2023-04-01T00:21:07;98480.13;;;11.60;62.28
27729;BME280;15126;42.186;24.340;2023-04-01T00:23:34;98471.28;;;11.62;63.09
27729;BME280;15126;42.186;24.340;2023-04-01T00:26:02;98466.00;;;11.55;63.27
27729;BME280;15126;42.186;24.340;2023-04-01T00:28:29;98472.19;;;11.59;63.11
27729;BME280;15126;42.186;24.340;2023-04-01T00:30:56;98465.81;;;11.58;63.28
27729;BME280;15126;42.186;24.340;2023-04-01T00:33:23;98472.19;;;11.59;63.01
27729;BME280;15126;42.186;24.340;2023-04-01T00:35:50;98465.34;;;11.51;63.58
27729;BME280;15126;42.186;24.340;2023-04-01T00:38:18;98466.75;;;11.55;63.19
27729;BME280;15126;42.186;24.340;2023-04-01T00:40:46;98466.44;;;11.53;63.21
27729;BME280;15126;42.186;24.340;2023-04-01T00:43:15;98465.19;;;11.54;63.13
27729;BME280;15126;42.186;24.340;2023-04-01T00:45:46;98464.53;;;11.50;63.47
27729;BME280;15126;42.186;24.340;2023-04-01T00:48:16;98460.16;;;11.40;64.01
27729;BME280;15126;42.186;24.340;2023-04-01T00:50:46;98460.75;;;11.35;64.40
27729;BME280;15126;42.186;24.340;2023-04-01T00:53:16;98458.88;;;11.32;64.35
27729;BME280;15126;42.186;24.340;2023-04-01T00:55:49;98463.16;;;11.24;63.71
27729;BME280;15126;42.186;24.340;2023-04-01T00:58:18;98461.00;;;11.28;63.83
27729;BME280;15126;42.186;24.340;2023-04-01T01:00:49;98465.97;;;11.24;63.95
27729;BME280;15126;42.186;24.340;2023-04-01T01:03:17;98459.00;;;11.28;64.13
27729;BME280;15126;42.186;24.340;2023-04-01T01:06:03;98463.81;;;11.28;64.24
27729;BME280;15126;42.186;24.340;2023-04-01T01:08:42;98461.00;;;11.28;64.54
27729;BME280;15126;42.186;24.340;2023-04-01T01:11:16;98465.06;;;11.27;64.25
27729;BME280;15126;42.186;24.340;2023-04-01T01:13:54;98459.78;;;11.29;64.03
27729;BME280;15126;42.186;24.340;2023-04-01T01:16:27;98451.72;;;11.31;63.81
27729;BME280;15126;42.186;24.340;2023-04-01T01:19:00;98448.91;;;11.22;63.88
27729;BME280;15126;42.186;24.340;2023-04-01T01:21:49;98457.00;;;11.29;63.78
27729;BME280;15126;42.186;24.340;2023-04-01T01:27:24;98447.22;;;11.24;63.39
27729;BME280;15126;42.186;24.340;2023-04-01T01:30:12;98443.16;;;11.25;63.73
27729;BME280;15126;42.186;24.340;2023-04-01T01:35:38;98424.59;;;11.31;64.24
27729;BME280;15126;42.186;24.340;2023-04-01T01:38:10;98423.22;;;11.36;63.93
27729;BME280;15126;42.186;24.340;2023-04-01T01:40:39;98429.31;;;11.13;63.76
27729;BME280;15126;42.186;24.340;2023-04-01T01:43:10;98430.13;;;11.22;63.59
27729;BME280;15126;42.186;24.340;2023-04-01T01:45:42;98421.50;;;11.29;63.64
27729;BME280;15126;42.186;24.340;2023-04-01T01:48:11;98412.66;;;11.31;63.22
27729;BME280;15126;42.186;24.340;2023-04-01T01:50:41;98411.75;;;11.34;64.05
27729;BME280;15126;42.186;24.340;2023-04-01T01:53:11;98396.97;;;11.24;64.10
27729;BME280;15126;42.186;24.340;2023-04-01T01:55:40;98423.56;;;11.38;63.08
27729;BME280;15126;42.186;24.340;2023-04-01T01:58:13;98419.19;;;11.37;63.12
27729;BME280;15126;42.186;24.340;2023-04-01T02:00:44;98417.97;;;11.38;63.67
27729;BME280;15126;42.186;24.340;2023-04-01T02:03:14;98413.19;;;11.39;64.71
27729;BME280;15126;42.186;24.340;2023-04-01T02:05:44;98417.81;;;11.42;64.43
27729;BME280;15126;42.186;24.340;2023-04-01T02:08:13;98407.44;;;11.42;64.02
27729;BME280;15126;42.186;24.340;2023-04-01T02:10:46;98402.63;;;11.43;63.91
27729;BME280;15126;42.186;24.340;2023-04-01T02:13:19;98395.81;;;11.44;63.28
27729;BME280;15126;42.186;24.340;2023-04-01T02:15:50;98390.69;;;11.42;62.85
27729;BME280;15126;42.186;24.340;2023-04-01T02:18:19;98404.19;;;11.44;63.08
27729;BME280;15126;42.186;24.340;2023-04-01T02:20:49;98412.38;;;11.38;63.36
27729;BME280;15126;42.186;24.340;2023-04-01T02:23:16;98400.44;;;11.38;63.33
27729;BME280;15126;42.186;24.340;2023-04-01T02:25:43;98402.91;;;11.35;63.32
27729;BME280;15126;42.186;24.340;2023-04-01T02:28:11;98397.34;;;11.35;64.47
27729;BME280;15126;42.186;24.340;2023-04-01T02:30:43;98393.28;;;11.27;64.68
27729;BME280;15126;42.186;24.340;2023-04-01T02:33:11;98406.75;;;11.29;64.05
27729;BME280;15126;42.186;24.340;2023-04-01T02:35:38;98410.19;;;11.33;63.47
27729;BME280;15126;42.186;24.340;2023-04-01T02:38:07;98404.25;;;11.22;63.26
27729;BME280;15126;42.186;24.340;2023-04-01T02:40:45;98392.00;;;11.28;63.39
27729;BME280;15126;42.186;24.340;2023-04-01T02:43:13;98393.41;;;11.24;63.13
27729;BME280;15126;42.186;24.340;2023-04-01T02:45:41;98393.41;;;11.24;63.26
27729;BME280;15126;42.186;24.340;2023-04-01T02:48:08;98388.72;;;11.21;63.41
27729;BME280;15126;42.186;24.340;2023-04-01T02:50:35;98387.94;;;11.20;64.11
27729;BME280;15126;42.186;24.340;2023-04-01T02:53:02;98387.44;;;11.13;63.66
27729;BME280;15126;42.186;24.340;2023-04-01T02:55:33;98390.91;;;11.17;63.89
27729;BME280;15126;42.186;24.340;2023-04-01T02:58:00;98385.44;;;11.13;64.15
27729;BME280;15126;42.186;24.340;2023-04-01T03:00:27;98380.78;;;11.10;64.16
27729;BME280;15126;42.186;24.340;2023-04-01T03:02:54;98364.16;;;11.07;64.37
27729;BME280;15126;42.186;24.340;2023-04-01T03:05:21;98367.41;;;11.05;64.56
27729;BME280;15126;42.186;24.340;2023-04-01T03:07:48;98362.09;;;10.98;63.82
27729;BME280;15126;42.186;24.340;2023-04-01T03:10:15;98360.69;;;10.94;64.32
27729;BME280;15126;42.186;24.340;2023-04-01T03:12:43;98360.19;;;10.86;64.54
27729;BME280;15126;42.186;24.340;2023-04-01T03:15:11;98352.06;;;10.79;65.55
27729;BME280;15126;42.186;24.340;2023-04-01T03:17:40;98349.44;;;10.75;65.61
27729;BME280;15126;42.186;24.340;2023-04-01T03:20:07;98352.84;;;10.80;65.58
27729;BME280;15126;42.186;24.340;2023-04-01T03:22:36;98352.66;;;10.74;65.34
27729;BME280;15126;42.186;24.340;2023-04-01T03:25:05;98361.94;;;10.71;65.25
27729;BME280;15126;42.186;24.340;2023-04-01T03:27:33;98358.94;;;10.65;66.00
27729;BME280;15126;42.186;24.340;2023-04-01T03:30:01;98357.84;;;10.63;66.52
27729;BME280;15126;42.186;24.340;2023-04-01T03:32:28;98361.88;;;10.62;66.70
27729;BME280;15126;42.186;24.340;2023-04-01T03:34:54;98349.47;;;10.63;66.43
27729;BME280;15126;42.186;24.340;2023-04-01T03:37:22;98357.22;;;10.59;66.38
27729;BME280;15126;42.186;24.340;2023-04-01T03:39:49;98362.97;;;10.64;66.76
27729;BME280;15126;42.186;24.340;2023-04-01T03:42:16;98348.38;;;10.60;66.84
27729;BME280;15126;42.186;24.340;2023-04-01T03:44:43;98344.38;;;10.61;67.39
27729;BME280;15126;42.186;24.340;2023-04-01T03:47:11;98344.69;;;10.63;66.70
27729;BME280;15126;42.186;24.340;2023-04-01T03:49:38;98350.72;;;10.62;67.51
27729;BME280;15126;42.186;24.340;2023-04-01T03:52:09;98363.31;;;10.66;67.00
27729;BME280;15126;42.186;24.340;2023-04-01T03:54:36;98355.53;;;10.61;67.17
27729;BME280;15126;42.186;24.340;2023-04-01T03:57:03;98358.75;;;10.60;67.42
27729;BME280;15126;42.186;24.340;2023-04-01T03:59:30;98357.53;;;10.61;66.97
27729;BME280;15126;42.186;24.340;2023-04-01T04:01:57;98366.56;;;10.65;67.08
27729;BME280;15126;42.186;24.340;2023-04-01T04:04:25;98371.34;;;10.64;67.38
27729;BME280;15126;42.186;24.340;2023-04-01T04:06:52;98365.66;;;10.68;67.09
27729;BME280;15126;42.186;24.340;2023-04-01T04:09:19;98365.81;;;10.73;67.20
27729;BME280;15126;42.186;24.340;2023-04-01T04:11:45;98362.59;;;10.75;67.39
27729;BME280;15126;42.186;24.340;2023-04-01T04:14:12;98359.34;;;10.76;67.97
27729;BME280;15126;42.186;24.340;2023-04-01T04:16:39;98360.00;;;10.81;67.50
27729;BME280;15126;42.186;24.340;2023-04-01T04:19:06;98363.09;;;10.83;67.86
27729;BME280;15126;42.186;24.340;2023-04-01T04:21:34;98359.22;;;10.80;67.67
27729;BME280;15126;42.186;24.340;2023-04-01T04:24:01;98360.78;;;10.81;68.25
27729;BME280;15126;42.186;24.340;2023-04-01T04:26:28;98359.41;;;10.86;67.96
27729;BME280;15126;42.186;24.340;2023-04-01T04:28:55;98367.44;;;10.84;68.40
27729;BME280;15126;42.186;24.340;2023-04-01T04:31:23;98366.47;;;10.77;68.45
27729;BME280;15126;42.186;24.340;2023-04-01T04:33:51;98375.63;;;10.78;68.51
27729;BME280;15126;42.186;24.340;2023-04-01T04:36:19;98365.69;;;10.77;68.17
27729;BME280;15126;42.186;24.340;2023-04-01T04:38:47;98368.34;;;10.81;67.79
27729;BME280;15126;42.186;24.340;2023-04-01T04:41:15;98384.13;;;10.74;68.64
27729;BME280;15126;42.186;24.340;2023-04-01T04:43:49;98377.16;;;10.79;68.39
27729;BME280;15126;42.186;24.340;2023-04-01T04:46:17;98372.53;;;10.76;68.99
27729;BME280;15126;42.186;24.340;2023-04-01T04:48:44;98359.28;;;10.67;68.92
27729;BME280;15126;42.186;24.340;2023-04-01T04:51:13;98360.25;;;10.73;68.71
27729;BME280;15126;42.186;24.340;2023-04-01T04:53:41;98366.28;;;10.72;69.23
27729;BME280;15126;42.186;24.340;2023-04-01T04:56:09;98368.09;;;10.66;69.30
27729;BME280;15126;42.186;24.340;2023-04-01T04:58:36;98340.88;;;10.48;68.60
27729;BME280;15126;42.186;24.340;2023-04-01T05:01:08;98356.75;;;10.60;68.18
27729;BME280;15126;42.186;24.340;2023-04-01T05:03:36;98369.16;;;10.59;68.61
27729;BME280;15126;42.186;24.340;2023-04-01T05:06:03;98355.66;;;10.58;68.66
27729;BME280;15126;42.186;24.340;2023-04-01T05:08:30;98350.34;;;10.51;69.52
27729;BME280;15126;42.186;24.340;2023-04-01T05:10:58;98356.13;;;10.56;69.75
27729;BME280;15126;42.186;24.340;2023-04-01T05:13:26;98346.50;;;10.57;69.15
27729;BME280;15126;42.186;24.340;2023-04-01T05:15:53;98347.78;;;10.65;68.73
27729;BME280;15126;42.186;24.340;2023-04-01T05:18:20;98343.00;;;10.66;68.93
27729;BME280;15126;42.186;24.340;2023-04-01T05:20:48;98334.44;;;10.60;69.07
27729;BME280;15126;42.186;24.340;2023-04-01T05:23:15;98339.31;;;10.69;69.31
27729;BME280;15126;42.186;24.340;2023-04-01T05:25:42;98337.94;;;10.73;69.02
27729;BME280;15126;42.186;24.340;2023-04-01T05:28:10;98332.03;;;10.71;69.37
27729;BME280;15126;42.186;24.340;2023-04-01T05:30:41;98319.59;;;10.63;69.40
27729;BME280;15126;42.186;24.340;2023-04-01T05:33:08;98332.03;;;10.71;69.83
27729;BME280;15126;42.186;24.340;2023-04-01T05:35:36;98321.66;;;10.72;69.66
27729;BME280;15126;42.186;24.340;2023-04-01T05:38:03;98322.44;;;10.72;69.52
27729;BME280;15126;42.186;24.340;2023-04-01T05:40:30;98304.34;;;10.77;69.21
27729;BME280;15126;42.186;24.340;2023-04-01T05:42:58;98308.56;;;10.82;68.82
27729;BME280;15126;42.186;24.340;2023-04-01T05:45:25;98280.31;;;10.70;68.63
27729;BME280;15126;42.186;24.340;2023-04-01T05:47:54;98290.91;;;10.85;68.68
27729;BME280;15126;42.186;24.340;2023-04-01T05:50:20;98270.47;;;10.88;68.90
27729;BME280;15126;42.186;24.340;2023-04-01T05:52:47;98260.56;;;10.87;68.96
27729;BME280;15126;42.186;24.340;2023-04-01T05:55:14;98246.63;;;10.96;69.21
27729;BME280;15126;42.186;24.340;2023-04-01T05:57:41;98243.22;;;11.01;68.58
27729;BME280;15126;42.186;24.340;2023-04-01T06:00:09;98254.91;;;11.08;68.61
27729;BME280;15126;42.186;24.340;2023-04-01T06:02:36;98252.72;;;11.03;68.86
27729;BME280;15126;42.186;24.340;2023-04-01T06:05:14;98236.75;;;11.04;69.58
27729;BME280;15126;42.186;24.340;2023-04-01T06:07:41;98238.59;;;10.98;69.96
27729;BME280;15126;42.186;24.340;2023-04-01T06:10:12;98233.63;;;11.02;70.10
27729;BME280;15126;42.186;24.340;2023-04-01T06:12:56;98239.88;;;11.06;69.82
27729;BME280;15126;42.186;24.340;2023-04-01T06:15:35;98233.50;;;11.05;70.04
27729;BME280;15126;42.186;24.340;2023-04-01T06:18:26;98242.19;;;11.07;70.24
27729;BME280;15126;42.186;24.340;2023-04-01T06:21:04;98242.22;;;11.16;70.03
27729;BME280;15126;42.186;24.340;2023-04-01T06:23:47;98229.94;;;11.05;70.74
27729;BME280;15126;42.186;24.340;2023-04-01T06:26:24;98209.44;;;10.90;70.42
27729;BME280;15126;42.186;24.340;2023-04-01T06:32:07;98228.09;;;11.20;69.98
27729;BME280;15126;42.186;24.340;2023-04-01T06:34:56;98233.69;;;11.11;71.43
27729;BME280;15126;42.186;24.340;2023-04-01T06:37:44;98239.00;;;11.27;71.18
27729;BME280;15126;42.186;24.340;2023-04-01T06:40:39;98242.44;;;11.49;71.16
27729;BME280;15126;42.186;24.340;2023-04-01T06:43:16;98261.38;;;11.63;69.72
27729;BME280;15126;42.186;24.340;2023-04-01T06:45:50;98252.59;;;11.83;68.64
27729;BME280;15126;42.186;24.340;2023-04-01T06:48:32;98244.66;;;11.90;69.08
27729;BME280;15126;42.186;24.340;2023-04-01T06:51:16;98220.16;;;11.94;67.79
27729;BME280;15126;42.186;24.340;2023-04-01T06:53:54;98228.22;;;12.02;67.51
27729;BME280;15126;42.186;24.340;2023-04-01T06:56:25;98225.88;;;11.91;68.23
27729;BME280;15126;42.186;24.340;2023-04-01T06:58:56;98215.94;;;11.99;69.47
27729;BME280;15126;42.186;24.340;2023-04-01T07:01:29;98210.22;;;12.03;69.35
27729;BME280;15126;42.186;24.340;2023-04-01T07:03:59;98229.72;;;12.30;69.23
27729;BME280;15126;42.186;24.340;2023-04-01T07:06:31;98246.78;;;12.50;68.13
27729;BME280;15126;42.186;24.340;2023-04-01T07:09:03;98231.97;;;12.68;67.54
27729;BME280;15126;42.186;24.340;2023-04-01T07:11:34;98243.22;;;12.91;67.04
27729;BME280;15126;42.186;24.340;2023-04-01T07:14:05;98234.06;;;12.91;67.13
27729;BME280;15126;42.186;24.340;2023-04-01T07:16:35;98250.94;;;13.05;65.88
27729;BME280;15126;42.186;24.340;2023-04-01T07:19:09;98250.50;;;13.07;65.28
27729;BME280;15126;42.186;24.340;2023-04-01T07:21:42;98236.31;;;13.10;65.61
27729;BME280;15126;42.186;24.340;2023-04-01T07:24:17;98242.00;;;13.25;65.68
27729;BME280;15126;42.186;24.340;2023-04-01T07:26:49;98226.06;;;13.07;65.09
27729;BME280;15126;42.186;24.340;2023-04-01T07:29:18;98231.78;;;13.13;65.71
27729;BME280;15126;42.186;24.340;2023-04-01T07:34:47;98229.88;;;13.28;65.73
27729;BME280;15126;42.186;24.340;2023-04-01T07:37:21;98235.63;;;13.25;64.63
27729;BME280;15126;42.186;24.340;2023-04-01T07:39:56;98236.84;;;13.33;64.54
27729;BME280;15126;42.186;24.340;2023-04-01T07:42:36;98226.66;;;13.44;64.03
27729;BME280;15126;42.186;24.340;2023-04-01T07:45:14;98227.59;;;13.18;64.74
27729;BME280;15126;42.186;24.340;2023-04-01T07:48:00;98220.16;;;13.05;64.80
27729;BME280;15126;42.186;24.340;2023-04-01T07:50:38;98223.34;;;12.89;65.40
27729;BME280;15126;42.186;24.340;2023-04-01T07:53:13;98225.22;;;12.83;66.22
27729;BME280;15126;42.186;24.340;2023-04-01T07:55:48;98220.66;;;12.95;66.22
27729;BME280;15126;42.186;24.340;2023-04-01T07:58:24;98220.19;;;12.96;68.27
27729;BME280;15126;42.186;24.340;2023-04-01T08:00:59;98215.34;;;13.06;67.44
27729;BME280;15126;42.186;24.340;2023-04-01T08:03:35;98222.94;;;13.15;66.32
27729;BME280;15126;42.186;24.340;2023-04-01T08:06:10;98221.09;;;13.02;64.81
27729;BME280;15126;42.186;24.340;2023-04-01T08:08:46;98222.03;;;13.08;64.25
27729;BME280;15126;42.186;24.340;2023-04-01T08:11:31;98209.53;;;13.19;65.39
27729;BME280;15126;42.186;24.340;2023-04-01T08:14:05;98200.53;;;13.15;65.33
27729;BME280;15126;42.186;24.340;2023-04-01T08:16:42;98198.03;;;13.17;66.13
27729;BME280;15126;42.186;24.340;2023-04-01T08:19:19;98202.69;;;13.20;66.23
27729;BME280;15126;42.186;24.340;2023-04-01T08:21:51;98176.16;;;13.06;64.95
27729;BME280;15126;42.186;24.340;2023-04-01T08:24:25;98189.22;;;13.33;65.18
27729;BME280;15126;42.186;24.340;2023-04-01T08:26:58;98172.66;;;13.44;65.14
27729;BME280;15126;42.186;24.340;2023-04-01T08:29:34;98168.19;;;13.61;63.03
27729;BME280;15126;42.186;24.340;2023-04-01T08:32:09;98162.69;;;13.66;63.51
27729;BME280;15126;42.186;24.340;2023-04-01T08:34:39;98146.38;;;13.80;63.05
27729;BME280;15126;42.186;24.340;2023-04-01T08:37:11;98141.38;;;13.98;61.53
27729;BME280;15126;42.186;24.340;2023-04-01T08:39:47;98140.22;;;13.90;61.02
27729;BME280;15126;42.186;24.340;2023-04-01T08:42:35;98132.47;;;14.00;61.41
27729;BME280;15126;42.186;24.340;2023-04-01T08:45:40;98135.38;;;14.05;61.76
27729;BME280;15126;42.186;24.340;2023-04-01T08:48:28;98130.34;;;13.95;61.69
27729;BME280;15126;42.186;24.340;2023-04-01T08:54:05;98128.72;;;13.88;60.86
27729;BME280;15126;42.186;24.340;2023-04-01T08:56:41;98112.28;;;13.96;61.27
27729;BME280;15126;42.186;24.340;2023-04-01T08:59:35;98110.47;;;14.07;60.99
27729;BME280;15126;42.186;24.340;2023-04-01T09:02:22;98094.03;;;13.86;59.99
27729;BME280;15126;42.186;24.340;2023-04-01T09:05:22;98116.25;;;14.18;60.61
27729;BME280;15126;42.186;24.340;2023-04-01T09:08:01;98114.97;;;14.19;61.66
27729;BME280;15126;42.186;24.340;2023-04-01T09:10:44;98090.91;;;14.27;60.72
27729;BME280;15126;42.186;24.340;2023-04-01T09:13:31;98090.13;;;14.56;61.02
27729;BME280;15126;42.186;24.340;2023-04-01T09:16:16;98089.84;;;14.74;59.44
27729;BME280;15126;42.186;24.340;2023-04-01T09:18:54;98084.81;;;14.78;59.29
27729;BME280;15126;42.186;24.340;2023-04-01T09:21:31;98076.97;;;14.82;57.64
27729;BME280;15126;42.186;24.340;2023-04-01T09:24:24;98080.38;;;14.92;57.99
27729;BME280;15126;42.186;24.340;2023-04-01T09:27:03;98083.06;;;15.01;58.61
27729;BME280;15126;42.186;24.340;2023-04-01T09:29:47;98080.03;;;15.25;58.67
27729;BME280;15126;42.186;24.340;2023-04-01T09:32:33;98078.16;;;15.36;58.06
27729;BME280;15126;42.186;24.340;2023-04-01T09:35:20;98080.91;;;15.51;57.44
27729;BME280;15126;42.186;24.340;2023-04-01T09:37:53;98083.59;;;15.66;57.29
27729;BME280;15126;42.186;24.340;2023-04-01T09:40:31;98065.50;;;15.67;55.62
27729;BME280;15126;42.186;24.340;2023-04-01T09:43:21;98065.03;;;15.74;56.60
27729;BME280;15126;42.186;24.340;2023-04-01T09:46:09;98046.91;;;15.75;55.86
27729;BME280;15126;42.186;24.340;2023-04-01T09:48:51;98035.41;;;15.73;56.25
27729;BME280;15126;42.186;24.340;2023-04-01T09:51:30;98034.69;;;15.78;56.52
27729;BME280;15126;42.186;24.340;2023-04-01T09:54:23;98027.84;;;15.84;57.75
27729;BME280;15126;42.186;24.340;2023-04-01T09:57:07;98015.53;;;15.82;56.78
27729;BME280;15126;42.186;24.340;2023-04-01T09:59:57;98014.53;;;15.85;55.79
27729;BME280;15126;42.186;24.340;2023-04-01T10:06:03;98004.22;;;15.71;57.58
27729;BME280;15126;42.186;24.340;2023-04-01T10:09:16;97987.47;;;15.87;57.63
27729;BME280;15126;42.186;24.340;2023-04-01T10:12:14;98001.94;;;15.75;57.50
27729;BME280;15126;42.186;24.340;2023-04-01T10:18:27;97978.94;;;15.76;57.24
27729;BME280;15126;42.186;24.340;2023-04-01T10:24:14;97951.84;;;16.10;58.22
27729;BME280;15126;42.186;24.340;2023-04-01T10:27:01;97929.94;;;16.25;57.73
27729;BME280;15126;42.186;24.340;2023-04-01T10:33:04;97938.44;;;16.79;56.66
27729;BME280;15126;42.186;24.340;2023-04-01T10:36:05;97940.25;;;16.82;56.50
27729;BME280;15126;42.186;24.340;2023-04-01T10:41:58;97928.03;;;17.18;55.49
27729;BME280;15126;42.186;24.340;2023-04-01T10:44:57;97910.66;;;17.36;55.61
27729;BME280;15126;42.186;24.340;2023-04-01T10:47:44;97901.94;;;17.45;57.26
27729;BME280;15126;42.186;24.340;2023-04-01T10:50:24;97896.81;;;17.49;54.88
27729;BME280;15126;42.186;24.340;2023-04-01T10:53:47;97893.50;;;17.51;54.44
27729;BME280;15126;42.186;24.340;2023-04-01T10:56:36;97869.41;;;17.50;54.73
27729;BME280;15126;42.186;24.340;2023-04-01T10:59:20;97879.66;;;17.64;55.23
27729;BME280;15126;42.186;24.340;2023-04-01T11:02:35;97870.47;;;17.69;53.49
27729;BME280;15126;42.186;24.340;2023-04-01T11:05:51;97870.72;;;17.65;53.10
27729;BME280;15126;42.186;24.340;2023-04-01T11:11:54;97871.50;;;17.55;53.70
27729;BME280;15126;42.186;24.340;2023-04-01T11:17:51;97864.53;;;17.22;54.96
27729;BME280;15126;42.186;24.340;2023-04-01T11:23:25;97866.06;;;17.18;55.20
27729;BME280;15126;42.186;24.340;2023-04-01T11:26:10;97847.63;;;17.28;55.20
27729;BME280;15126;42.186;24.340;2023-04-01T11:29:04;97841.22;;;17.33;55.33
27729;BME280;15126;42.186;24.340;2023-04-01T11:31:47;97838.41;;;17.22;54.58
27729;BME280;15126;42.186;24.340;2023-04-01T11:34:28;97847.88;;;17.36;54.71
27729;BME280;15126;42.186;24.340;2023-04-01T11:37:08;97845.31;;;17.38;54.43
27729;BME280;15126;42.186;24.340;2023-04-01T11:39:46;97850.19;;;17.26;53.46
27729;BME280;15126;42.186;24.340;2023-04-01T11:42:24;97834.28;;;17.34;53.82
27729;BME280;15126;42.186;24.340;2023-04-01T11:45:03;97828.16;;;17.30;54.27
27729;BME280;15126;42.186;24.340;2023-04-01T11:47:55;97823.78;;;17.29;53.94
27729;BME280;15126;42.186;24.340;2023-04-01T11:50:35;97827.91;;;17.22;54.91
27729;BME280;15126;42.186;24.340;2023-04-01T11:53:19;97825.09;;;17.22;54.76
27729;BME280;15126;42.186;24.340;2023-04-01T11:56:02;97821.25;;;17.25;54.54
27729;BME280;15126;42.186;24.340;2023-04-01T12:01:28;97815.63;;;17.14;54.70
27729;BME280;15126;42.186;24.340;2023-04-01T12:07:08;97804.06;;;17.23;54.60
27729;BME280;15126;42.186;24.340;2023-04-01T12:09:48;97783.84;;;17.14;53.92
27729;BME280;15126;42.186;24.340;2023-04-01T12:12:25;97797.16;;;17.13;53.63
27729;BME280;15126;42.186;24.340;2023-04-01T12:15:04;97787.16;;;17.07;54.41
27729;BME280;15126;42.186;24.340;2023-04-01T12:17:44;97784.09;;;17.10;55.33
27729;BME280;15126;42.186;24.340;2023-04-01T12:20:34;97776.44;;;17.11;54.76
27729;BME280;15126;42.186;24.340;2023-04-01T12:23:15;97747.22;;;16.86;54.49
27729;BME280;15126;42.186;24.340;2023-04-01T12:26:10;97746.97;;;17.12;54.52
27729;BME280;15126;42.186;24.340;2023-04-01T12:28:50;97761.31;;;17.08;54.46
27729;BME280;15126;42.186;24.340;2023-04-01T12:31:30;97771.03;;;17.24;55.06
27729;BME280;15126;42.186;24.340;2023-04-01T12:37:18;97761.81;;;17.35;53.21
27729;BME280;15126;42.186;24.340;2023-04-01T12:40:17;97735.63;;;17.51;53.92
27729;BME280;15126;42.186;24.340;2023-04-01T12:43:03;97712.78;;;17.76;53.28
27729;BME280;15126;42.186;24.340;2023-04-01T12:45:32;97687.66;;;17.78;52.10
27729;BME280;15126;42.186;24.340;2023-04-01T12:48:16;97703.72;;;17.95;51.52
27729;BME280;15126;42.186;24.340;2023-04-01T12:57:33;97743.97;;;18.01;51.73
27729;BME280;15126;42.186;24.340;2023-04-01T13:00:25;97734.25;;;17.96;51.05
27729;BME280;15126;42.186;24.340;2023-04-01T13:03:06;97746.75;;;18.06;51.73
27729;BME280;15126;42.186;24.340;2023-04-01T13:06:11;97771.19;;;17.93;51.51
27729;BME280;15126;42.186;24.340;2023-04-01T13:08:49;97803.03;;;17.65;51.08
27729;BME280;15126;42.186;24.340;2023-04-01T13:11:26;97885.59;;;17.55;52.16
27729;BME280;15126;42.186;24.340;2023-04-01T13:14:25;97852.97;;;17.15;52.71
27729;BME280;15126;42.186;24.340;2023-04-01T13:16:58;97881.41;;;17.06;53.04
27729;BME280;15126;42.186;24.340;2023-04-01T13:19:34;97912.09;;;16.82;54.69
27729;BME280;15126;42.186;24.340;2023-04-01T13:22:08;97879.03;;;16.71;54.74
27729;BME280;15126;42.186;24.340;2023-04-01T13:24:43;97891.50;;;16.53;56.71
27729;BME280;15126;42.186;24.340;2023-04-01T13:27:17;97884.59;;;16.54;59.42
27729;BME280;15126;42.186;24.340;2023-04-01T13:30:02;97888.41;;;16.51;61.83
27729;BME280;15126;42.186;24.340;2023-04-01T13:32:39;97906.47;;;16.34;65.69
27729;BME280;15126;42.186;24.340;2023-04-01T13:35:20;97924.69;;;16.01;67.50
27729;BME280;15126;42.186;24.340;2023-04-01T13:37:59;97934.09;;;15.93;69.21
27729;BME280;15126;42.186;24.340;2023-04-01T13:40:38;97927.25;;;15.68;68.97
27729;BME280;15126;42.186;24.340;2023-04-01T13:43:12;97948.06;;;15.51;69.25
27729;BME280;15126;42.186;24.340;2023-04-01T13:45:50;97946.00;;;15.25;71.86
27729;BME280;15126;42.186;24.340;2023-04-01T13:48:33;97953.22;;;15.06;74.09
27729;BME280;15126;42.186;24.340;2023-04-01T13:57:05;97904.06;;;14.70;79.42
27729;BME280;15126;42.186;24.340;2023-04-01T14:03:08;97888.59;;;14.55;81.03
27729;BME280;15126;42.186;24.340;2023-04-01T14:05:54;97878.06;;;14.70;80.90
27729;BME280;15126;42.186;24.340;2023-04-01T14:08:42;97882.72;;;14.78;78.74
27729;BME280;15126;42.186;24.340;2023-04-01T14:11:18;97886.69;;;14.92;79.38
27729;BME280;15126;42.186;24.340;2023-04-01T14:13:58;97893.31;;;14.89;80.04
27729;BME280;15126;42.186;24.340;2023-04-01T14:16:55;97890.84;;;14.97;81.49
27729;BME280;15126;42.186;24.340;2023-04-01T14:19:39;97868.13;;;14.95;79.04
27729;BME280;15126;42.186;24.340;2023-04-01T14:22:20;97881.91;;;14.98;79.95
27729;BME280;15126;42.186;24.340;2023-04-01T14:25:08;97903.00;;;15.14;78.45
27729;BME280;15126;42.186;24.340;2023-04-01T14:27:50;97914.13;;;15.03;79.78
27729;BME280;15126;42.186;24.340;2023-04-01T14:30:42;97920.69;;;14.94;80.73
27729;BME280;15126;42.186;24.340;2023-04-01T14:33:23;97931.97;;;15.00;81.07
27729;BME280;15126;42.186;24.340;2023-04-01T14:38:54;97913.63;;;15.04;83.12
27729;BME280;15126;42.186;24.340;2023-04-01T14:41:39;97883.38;;;14.68;84.87
27729;BME280;15126;42.186;24.340;2023-04-01T14:44:22;97879.97;;;14.84;86.07